createdAt,value
2018-01-23T00:00:44.699Z,-0.50
2018-01-23T00:03:11.087Z,-0.60
2018-01-23T00:05:37.558Z,-0.60
2018-01-23T00:08:04.256Z,-0.70
2018-01-23T00:10:30.838Z,-0.70
2018-01-23T00:12:57.542Z,-0.80
2018-01-23T00:15:23.912Z,-0.80
2018-01-23T00:17:50.341Z,-0.70
2018-01-23T00:22:44.812Z,-0.60
2018-01-23T00:25:11.634Z,-0.40
2018-01-23T00:27:37.983Z,-0.50
2018-01-23T00:30:04.428Z,-0.50
2018-01-23T00:32:31.611Z,-0.30
2018-01-23T00:34:58.076Z,-0.30
2018-01-23T00:37:24.416Z,-0.30
2018-01-23T00:39:50.946Z,-0.10
2018-01-23T00:42:17.307Z,-0.10
2018-01-23T00:44:43.781Z,-0.10
2018-01-23T00:47:10.654Z,-0.10
2018-01-23T00:49:37.377Z,0.00
2018-01-23T00:52:03.820Z,0.00
2018-01-23T00:54:30.237Z,0.50
2018-01-23T00:56:56.686Z,0.00
2018-01-23T00:59:23.715Z,0.10
2018-01-23T01:01:50.866Z,-0.30
2018-01-23T01:04:17.901Z,0.10
2018-01-23T01:06:45.157Z,0.10
2018-01-23T01:09:11.644Z,0.10
2018-01-23T01:11:38.536Z,0.20
2018-01-23T01:14:05.799Z,0.20
2018-01-23T01:16:32.314Z,0.20
2018-01-23T01:18:58.692Z,0.10
2018-01-23T01:21:25.149Z,0.10
2018-01-23T01:23:51.641Z,0.10
2018-01-23T01:26:18.386Z,0.10
2018-01-23T01:28:44.793Z,0.10
2018-01-23T01:31:12.353Z,0.10
2018-01-23T01:33:38.947Z,0.20
2018-01-23T01:36:05.476Z,0.10
2018-01-23T01:38:32.006Z,0.20
2018-01-23T01:40:58.797Z,0.20
2018-01-23T01:43:25.480Z,0.20
2018-01-23T01:45:52.093Z,-0.10
2018-01-23T01:48:19.104Z,0.10
2018-01-23T01:50:46.731Z,0.10
2018-01-23T01:53:13.129Z,0.00
2018-01-23T01:55:39.833Z,0.90
2018-01-23T01:58:07.729Z,0.10
2018-01-23T02:00:34.925Z,0.10
2018-01-23T02:03:01.340Z,0.20
2018-01-23T02:05:27.946Z,0.10
2018-01-23T02:07:54.494Z,0.10
2018-01-23T02:10:21.022Z,0.20
2018-01-23T02:12:47.840Z,0.10
2018-01-23T02:15:15.080Z,0.20
2018-01-23T02:17:41.922Z,0.10
2018-01-23T02:20:08.362Z,0.20
2018-01-23T02:22:35.136Z,0.10
2018-01-23T02:25:01.648Z,0.10
2018-01-23T02:27:28.113Z,0.00
2018-01-23T02:29:55.966Z,0.00
2018-01-23T02:32:22.827Z,-0.10
2018-01-23T02:34:49.685Z,-0.20
2018-01-23T02:37:16.909Z,-0.40
2018-01-23T02:39:44.084Z,-0.50
2018-01-23T02:42:10.585Z,-0.50
2018-01-23T02:44:37.053Z,-0.50
2018-01-23T02:47:03.436Z,-0.60
2018-01-23T02:49:30.772Z,-0.70
2018-01-23T02:51:57.253Z,-0.70
2018-01-23T02:54:23.756Z,-0.60
2018-01-23T02:56:50.191Z,-0.80
2018-01-23T02:59:16.700Z,-0.70
2018-01-23T03:01:43.113Z,-0.90
2018-01-23T03:04:09.530Z,-0.90
2018-01-23T03:06:36.020Z,-0.90
2018-01-23T03:09:02.461Z,-1.00
2018-01-23T03:11:28.925Z,-1.00
2018-01-23T03:13:55.358Z,-0.90
2018-01-23T03:16:21.752Z,-1.10
2018-01-23T03:21:16.438Z,-1.30
2018-01-23T03:23:42.886Z,-1.30
2018-01-23T03:26:09.666Z,-1.30
2018-01-23T03:28:36.183Z,-1.30
2018-01-23T03:31:02.718Z,-1.30
2018-01-23T03:33:29.182Z,-1.00
2018-01-23T03:35:56.419Z,-1.40
2018-01-23T03:38:22.824Z,-1.00
2018-01-23T03:40:49.193Z,-1.10
2018-01-23T03:43:15.564Z,-1.10
2018-01-23T03:45:42.676Z,-1.10
2018-01-23T03:48:09.794Z,-0.90
2018-01-23T03:50:36.598Z,-0.90
2018-01-23T03:53:02.967Z,-0.70
2018-01-23T03:55:29.398Z,-0.70
2018-01-23T04:00:24.674Z,-0.60
2018-01-23T04:02:51.618Z,-0.50
2018-01-23T04:05:18.052Z,-0.50
2018-01-23T04:07:44.490Z,-0.30
2018-01-23T04:10:11.336Z,-0.30
2018-01-23T04:12:37.790Z,-0.20
2018-01-23T04:15:04.232Z,-0.20
2018-01-23T04:17:30.759Z,-0.20
2018-01-23T04:19:57.300Z,-0.10
2018-01-23T04:22:24.471Z,-0.20
2018-01-23T04:24:50.859Z,-0.10
2018-01-23T04:27:17.334Z,-0.20
2018-01-23T04:29:43.737Z,-0.10
2018-01-23T04:34:38.290Z,0.00
2018-01-23T04:37:04.661Z,0.00
2018-01-23T04:39:31.514Z,0.10
2018-01-23T04:41:58.358Z,0.10
2018-01-23T04:44:24.760Z,0.20
2018-01-23T04:46:51.325Z,-0.10
2018-01-23T04:49:17.772Z,0.20
2018-01-23T04:51:45.084Z,0.20
2018-01-23T04:54:11.437Z,0.20
2018-01-23T04:56:37.875Z,0.20
2018-01-23T04:59:04.236Z,0.30
2018-01-23T05:01:30.680Z,0.30
2018-01-23T05:03:57.142Z,0.30
2018-01-23T05:06:23.527Z,0.20
2018-01-23T05:08:50.650Z,0.30
2018-01-23T05:11:17.185Z,0.40
2018-01-23T05:13:44.346Z,0.30
2018-01-23T05:16:10.709Z,0.30
2018-01-23T05:18:37.826Z,0.20
2018-01-23T05:21:04.919Z,0.30
2018-01-23T05:23:31.396Z,0.50
2018-01-23T05:25:57.911Z,0.20
2018-01-23T05:28:24.289Z,0.20
2018-01-23T05:30:51.142Z,0.80
2018-01-23T05:33:18.377Z,0.40
2018-01-23T05:35:44.860Z,0.20
2018-01-23T05:38:11.404Z,0.20
2018-01-23T05:40:38.729Z,0.30
2018-01-23T05:43:06.897Z,0.30
2018-01-23T05:45:33.677Z,0.20
2018-01-23T05:48:00.518Z,0.40
2018-01-23T05:50:27.289Z,0.20
2018-01-23T05:52:54.617Z,0.30
2018-01-23T05:55:21.318Z,0.20
2018-01-23T06:00:16.283Z,0.30
2018-01-23T06:02:42.869Z,0.30
2018-01-23T06:05:09.466Z,0.40
2018-01-23T06:10:04.610Z,0.30
2018-01-23T06:12:31.050Z,0.30
2018-01-23T06:14:58.189Z,0.40
2018-01-23T06:17:25.292Z,0.20
2018-01-23T06:19:52.500Z,0.30
2018-01-23T06:22:18.931Z,0.40
2018-01-23T06:24:46.154Z,0.40
2018-01-23T06:27:12.570Z,0.40
2018-01-23T06:29:39.661Z,0.40
2018-01-23T06:32:06.505Z,0.30
2018-01-23T06:34:32.875Z,0.40
2018-01-23T06:36:59.694Z,0.40
2018-01-23T06:39:26.185Z,0.40
2018-01-23T06:41:53.319Z,0.40
2018-01-23T06:44:19.837Z,0.30
2018-01-23T06:46:47.105Z,0.40
2018-01-23T06:49:14.458Z,0.40
2018-01-23T06:51:40.825Z,0.40
2018-01-23T06:54:07.994Z,0.40
2018-01-23T06:59:02.571Z,0.50
2018-01-23T07:01:29.418Z,0.60
2018-01-23T07:03:56.573Z,0.50
2018-01-23T07:06:23.710Z,0.50
2018-01-23T07:08:50.872Z,0.50
2018-01-23T07:11:17.300Z,0.60
2018-01-23T07:13:43.740Z,0.50
2018-01-23T07:16:10.988Z,0.50
2018-01-23T07:18:37.552Z,0.50
2018-01-23T07:21:04.409Z,0.00
2018-01-23T07:23:30.858Z,0.20
2018-01-23T07:25:57.221Z,0.50
2018-01-23T07:28:23.813Z,0.80
2018-01-23T07:30:50.331Z,0.60
2018-01-23T07:33:16.735Z,0.50
2018-01-23T07:35:43.166Z,0.60
2018-01-23T07:38:10.367Z,0.50
2018-01-23T07:40:37.235Z,-0.10
2018-01-23T07:43:04.114Z,0.60
2018-01-23T07:45:31.868Z,0.60
2018-01-23T07:47:59.019Z,0.60
2018-01-23T07:50:25.840Z,0.70
2018-01-23T07:52:52.310Z,0.60
2018-01-23T07:55:18.870Z,0.70
2018-01-23T07:57:46.067Z,0.70
2018-01-23T08:00:12.476Z,0.60
2018-01-23T08:02:38.824Z,0.60
2018-01-23T08:05:05.212Z,0.70
2018-01-23T08:07:32.004Z,1.20
2018-01-23T08:09:59.204Z,0.70
2018-01-23T08:12:26.297Z,0.80
2018-01-23T08:14:52.762Z,0.70
2018-01-23T08:17:19.115Z,0.80
2018-01-23T08:19:45.469Z,0.70
2018-01-23T08:22:12.617Z,0.90
2018-01-23T08:24:39.039Z,0.80
2018-01-23T08:27:05.415Z,0.40
2018-01-23T08:29:31.797Z,0.90
2018-01-23T08:31:58.198Z,0.90
2018-01-23T08:34:24.596Z,0.80
2018-01-23T08:36:51.380Z,0.90
2018-01-23T08:39:17.873Z,0.90
2018-01-23T08:41:44.250Z,1.00
2018-01-23T08:44:11.007Z,1.00
2018-01-23T08:46:37.971Z,1.00
2018-01-23T08:49:04.422Z,1.00
2018-01-23T08:51:30.793Z,0.70
2018-01-23T08:53:57.201Z,1.00
2018-01-23T08:56:25.361Z,1.00
2018-01-23T08:58:51.756Z,1.10
2018-01-23T09:01:18.157Z,1.00
2018-01-23T09:03:44.586Z,1.00
2018-01-23T09:06:11.094Z,1.00
2018-01-23T09:08:37.974Z,1.10
2018-01-23T09:11:05.072Z,1.20
2018-01-23T09:13:32.746Z,1.20
2018-01-23T09:15:59.168Z,1.50
2018-01-23T09:18:25.737Z,1.30
2018-01-23T09:20:52.174Z,1.30
2018-01-23T09:23:18.681Z,1.30
2018-01-23T09:25:45.572Z,1.30
2018-01-23T09:28:13.292Z,1.30
2018-01-23T09:30:42.478Z,1.40
2018-01-23T09:33:09.008Z,1.60
2018-01-23T09:35:35.769Z,1.50
2018-01-23T09:38:02.116Z,1.90
2018-01-23T09:40:29.272Z,1.90
2018-01-23T09:42:55.709Z,1.80
2018-01-23T09:45:22.627Z,1.50
2018-01-23T09:47:49.107Z,1.50
2018-01-23T09:50:16.291Z,1.50
2018-01-23T09:52:43.122Z,1.50
2018-01-23T09:55:11.168Z,1.50
2018-01-23T09:57:38.965Z,1.70
2018-01-23T10:00:05.468Z,1.60
2018-01-23T10:02:33.244Z,1.70
2018-01-23T10:05:01.240Z,1.80
2018-01-23T10:07:27.695Z,1.90
2018-01-23T10:09:54.727Z,2.00
2018-01-23T10:12:21.523Z,2.00
2018-01-23T10:14:47.921Z,2.10
2018-01-23T10:17:16.252Z,2.20
2018-01-23T10:19:42.791Z,2.10
2018-01-23T10:22:09.128Z,2.10
2018-01-23T10:24:35.542Z,2.00
2018-01-23T10:27:02.339Z,2.20
2018-01-23T10:29:29.443Z,1.80
2018-01-23T10:31:55.867Z,2.10
2018-01-23T10:34:22.728Z,2.00
2018-01-23T10:36:49.089Z,1.50
2018-01-23T10:39:15.492Z,1.60
2018-01-23T10:41:42.621Z,1.70
2018-01-23T10:44:09.054Z,1.60
2018-01-23T10:46:36.205Z,1.70
2018-01-23T10:49:03.121Z,1.70
2018-01-23T10:51:29.894Z,1.50
2018-01-23T10:53:57.653Z,1.60
2018-01-23T10:56:24.145Z,1.70
2018-01-23T10:58:50.677Z,1.60
2018-01-23T11:01:17.902Z,1.70
2018-01-23T11:03:44.748Z,1.90
2018-01-23T11:06:12.128Z,1.60
2018-01-23T11:08:39.362Z,1.70
2018-01-23T11:11:06.645Z,1.90
2018-01-23T11:13:32.992Z,2.10
2018-01-23T11:16:00.723Z,2.40
2018-01-23T11:18:27.254Z,2.40
2018-01-23T11:20:53.664Z,2.40
2018-01-23T11:23:21.564Z,2.30
2018-01-23T11:25:48.185Z,2.60
2018-01-23T11:28:14.623Z,2.10
2018-01-23T11:30:41.132Z,2.00
2018-01-23T11:33:08.348Z,1.90
2018-01-23T11:35:35.938Z,1.80
2018-01-23T11:38:02.361Z,1.70
2018-01-23T11:40:29.352Z,1.80
2018-01-23T11:42:56.924Z,1.90
2018-01-23T11:45:23.351Z,2.00
2018-01-23T11:47:51.303Z,1.80
2018-01-23T11:50:18.104Z,2.10
2018-01-23T11:52:44.905Z,2.10
2018-01-23T11:55:12.844Z,2.20
2018-01-23T11:57:40.105Z,2.30
2018-01-23T12:00:06.744Z,2.40
2018-01-23T12:05:02.091Z,2.50
2018-01-23T12:07:28.577Z,2.20
2018-01-23T12:09:54.961Z,2.20
2018-01-23T12:12:21.844Z,2.20
2018-01-23T12:14:48.643Z,2.40
2018-01-23T12:17:15.205Z,2.40
2018-01-23T12:19:42.568Z,2.40
2018-01-23T12:22:08.957Z,2.50
2018-01-23T12:24:35.986Z,2.40
2018-01-23T12:29:30.891Z,1.80
2018-01-23T12:31:57.334Z,2.20
2018-01-23T12:34:23.972Z,2.30
2018-01-23T12:36:50.817Z,2.20
2018-01-23T12:39:17.503Z,2.20
2018-01-23T12:41:44.496Z,2.10
2018-01-23T12:44:12.163Z,2.10
2018-01-23T12:46:38.746Z,2.10
2018-01-23T12:49:06.074Z,2.20
2018-01-23T12:51:33.283Z,2.20
2018-01-23T12:54:00.024Z,2.10
2018-01-23T12:56:28.066Z,2.20
2018-01-23T12:58:55.762Z,2.20
2018-01-23T13:01:23.769Z,2.40
2018-01-23T13:03:50.278Z,2.40
2018-01-23T13:06:17.098Z,2.40
2018-01-23T13:08:44.838Z,2.60
2018-01-23T13:11:11.308Z,2.50
2018-01-23T13:13:37.742Z,2.60
2018-01-23T13:16:04.813Z,2.50
2018-01-23T13:18:32.348Z,2.40
2018-01-23T13:21:00.098Z,2.50
2018-01-23T13:23:26.606Z,2.80
2018-01-23T13:25:53.136Z,2.70
2018-01-23T13:28:20.740Z,2.70
2018-01-23T13:30:48.050Z,2.70
2018-01-23T13:33:14.975Z,2.80
2018-01-23T13:35:41.682Z,2.70
2018-01-23T13:38:08.241Z,2.60
2018-01-23T13:40:34.812Z,2.60
2018-01-23T13:43:02.247Z,2.60
2018-01-23T13:45:29.254Z,2.60
2018-01-23T13:47:55.789Z,2.60
2018-01-23T13:50:22.211Z,2.60
2018-01-23T13:52:48.690Z,2.40
2018-01-23T13:55:15.859Z,2.60
2018-01-23T13:57:42.340Z,2.60
2018-01-23T14:00:09.316Z,2.60
2018-01-23T14:02:36.089Z,2.20
2018-01-23T14:05:03.315Z,2.50
2018-01-23T14:07:29.770Z,2.50
2018-01-23T14:14:53.033Z,2.60
2018-01-23T14:17:19.928Z,2.40
2018-01-23T14:19:47.220Z,2.60
2018-01-23T14:24:42.657Z,2.60
2018-01-23T14:27:10.435Z,2.60
2018-01-23T14:29:37.380Z,2.80
2018-01-23T14:32:04.986Z,2.50
2018-01-23T14:36:59.842Z,2.60
2018-01-23T14:39:27.066Z,2.50
2018-01-23T14:41:53.909Z,2.60
2018-01-23T14:44:21.148Z,2.00
2018-01-23T14:46:47.593Z,2.60
2018-01-23T14:49:14.213Z,2.60
2018-01-23T14:51:40.785Z,2.60
2018-01-23T14:56:36.674Z,2.60
2018-01-23T14:59:03.937Z,2.60
2018-01-23T15:01:31.334Z,2.60
2018-01-23T15:03:57.911Z,2.60
2018-01-23T15:06:25.359Z,2.60
2018-01-23T15:08:51.748Z,2.50
2018-01-23T15:11:19.499Z,2.60
2018-01-23T15:16:16.744Z,2.50
2018-01-23T15:18:44.057Z,2.50
2018-01-23T15:21:12.241Z,2.50
2018-01-23T15:23:39.243Z,2.50
2018-01-23T15:26:07.009Z,2.50
2018-01-23T15:28:34.188Z,2.50
2018-01-23T15:31:00.809Z,2.60
2018-01-23T15:33:27.813Z,2.50
2018-01-23T15:35:55.648Z,2.50
2018-01-23T15:38:23.546Z,2.50
2018-01-23T15:40:50.443Z,2.50
2018-01-23T15:43:18.129Z,2.60
2018-01-23T15:45:45.057Z,2.70
2018-01-23T15:48:11.941Z,2.70
2018-01-23T15:50:38.514Z,2.60
2018-01-23T15:53:05.828Z,2.80
2018-01-23T15:55:32.550Z,2.80
2018-01-23T15:58:00.051Z,2.70
2018-01-23T16:00:26.491Z,2.90
2018-01-23T16:02:54.373Z,2.90
2018-01-23T16:07:49.757Z,2.90
2018-01-23T16:10:17.361Z,2.90
2018-01-23T16:12:43.977Z,3.00
2018-01-23T16:15:12.029Z,2.90
2018-01-23T16:17:38.807Z,2.90
2018-01-23T16:22:33.670Z,3.00
2018-01-23T16:25:00.620Z,2.90
2018-01-23T16:27:27.142Z,2.60
2018-01-23T16:29:54.073Z,2.80
2018-01-23T16:32:21.401Z,3.00
2018-01-23T16:34:48.577Z,3.10
2018-01-23T16:37:15.771Z,3.10
2018-01-23T16:39:43.383Z,3.10
2018-01-23T16:42:09.774Z,3.20
2018-01-23T16:44:36.582Z,3.20
2018-01-23T16:47:03.412Z,3.20
2018-01-23T16:49:30.633Z,3.20
2018-01-23T16:51:57.153Z,3.20
2018-01-23T16:54:24.079Z,3.30
2018-01-23T16:56:50.495Z,3.30
2018-01-23T16:59:18.026Z,3.30
2018-01-23T17:01:45.955Z,3.30
2018-01-23T17:04:13.203Z,3.40
2018-01-23T17:06:40.106Z,3.50
2018-01-23T17:09:08.025Z,3.40
2018-01-23T17:11:34.522Z,3.40
2018-01-23T17:14:01.824Z,3.50
2018-01-23T17:16:28.618Z,3.50
2018-01-23T17:18:56.013Z,3.50
2018-01-23T17:21:23.372Z,3.50
2018-01-23T17:23:49.901Z,3.50
2018-01-23T17:26:16.539Z,3.60
2018-01-23T17:28:42.953Z,3.50
2018-01-23T17:31:10.225Z,3.60
2018-01-23T17:33:36.704Z,3.60
2018-01-23T17:36:04.961Z,3.60
2018-01-23T17:38:32.134Z,3.70
2018-01-23T17:40:58.635Z,3.70
2018-01-23T17:43:25.786Z,3.70
2018-01-23T17:45:52.237Z,3.70
2018-01-23T17:48:18.730Z,3.70
2018-01-23T17:50:47.248Z,3.70
2018-01-23T17:53:14.389Z,4.00
2018-01-23T17:55:41.913Z,3.80
2018-01-23T18:00:37.060Z,3.60
2018-01-23T18:03:03.922Z,4.20
2018-01-23T18:05:30.386Z,3.80
2018-01-23T18:07:57.386Z,3.90
2018-01-23T18:10:25.224Z,3.80
2018-01-23T18:12:53.032Z,3.90
2018-01-23T18:15:19.760Z,3.90
2018-01-23T18:17:47.840Z,3.90
2018-01-23T18:20:15.026Z,3.90
2018-01-23T18:22:42.645Z,3.90
2018-01-23T18:25:10.318Z,4.00
2018-01-23T18:27:36.970Z,4.00
2018-01-23T18:30:03.462Z,3.90
2018-01-23T18:32:31.426Z,4.10
2018-01-23T18:34:58.114Z,4.10
2018-01-23T18:37:25.489Z,4.10
2018-01-23T18:39:51.928Z,4.10
2018-01-23T18:42:18.433Z,4.10
2018-01-23T18:44:44.901Z,4.00
2018-01-23T18:47:11.372Z,4.10
2018-01-23T18:49:37.771Z,4.10
2018-01-23T18:52:04.251Z,4.10
2018-01-23T18:54:31.158Z,4.00
2018-01-23T18:56:58.651Z,4.10
2018-01-23T18:59:25.192Z,4.60
2018-01-23T19:01:52.474Z,4.20
2018-01-23T19:04:19.134Z,4.30
2018-01-23T19:06:46.118Z,4.30
2018-01-23T19:09:12.897Z,4.30
2018-01-23T19:11:39.587Z,4.30
2018-01-23T19:14:07.128Z,4.50
2018-01-23T19:16:34.209Z,4.50
2018-01-23T19:19:01.109Z,4.80
2018-01-23T19:21:27.805Z,4.60
2018-01-23T19:23:56.216Z,4.60
2018-01-23T19:26:24.064Z,4.60
2018-01-23T19:28:50.643Z,4.60
2018-01-23T19:31:18.217Z,4.60
2018-01-23T19:33:44.713Z,4.70
2018-01-23T19:36:12.017Z,4.70
2018-01-23T19:38:39.052Z,4.80
2018-01-23T19:41:06.246Z,4.80
2018-01-23T19:43:33.815Z,4.80
2018-01-23T19:46:00.572Z,4.80
2018-01-23T19:48:27.351Z,4.80
2018-01-23T19:50:55.466Z,4.80
2018-01-23T19:55:52.290Z,4.80
2018-01-23T19:58:19.593Z,4.90
2018-01-23T20:00:46.248Z,4.90
2018-01-23T20:03:13.650Z,4.90
2018-01-23T20:05:40.284Z,5.00
2018-01-23T20:08:07.830Z,4.90
2018-01-23T20:10:36.625Z,5.00
2018-01-23T20:13:03.819Z,5.00
2018-01-23T20:15:31.252Z,5.00
2018-01-23T20:17:58.518Z,5.00
2018-01-23T20:20:25.150Z,5.10
2018-01-23T20:25:21.188Z,5.00
2018-01-23T20:27:48.229Z,4.90
2018-01-23T20:30:15.248Z,5.00
2018-01-23T20:32:42.235Z,4.90
2018-01-23T20:35:08.767Z,4.80
2018-01-23T20:37:35.671Z,4.90
2018-01-23T20:40:03.110Z,4.90
2018-01-23T20:42:30.930Z,4.90
2018-01-23T20:44:57.414Z,5.00
2018-01-23T20:47:24.113Z,4.90
2018-01-23T20:49:50.558Z,4.90
2018-01-23T20:52:17.376Z,4.90
2018-01-23T20:54:44.600Z,5.00
2018-01-23T20:57:12.184Z,5.00
2018-01-23T20:59:38.676Z,5.10
2018-01-23T21:02:06.720Z,5.00
2018-01-23T21:04:33.181Z,4.90
2018-01-23T21:07:06.675Z,5.00
2018-01-23T21:09:33.179Z,5.00
2018-01-23T21:12:00.335Z,5.00
2018-01-23T21:14:27.584Z,5.00
2018-01-23T21:16:54.448Z,4.90
2018-01-23T21:19:21.038Z,5.10
2018-01-23T21:21:49.117Z,5.00
2018-01-23T21:24:16.273Z,5.00
2018-01-23T21:26:43.266Z,5.00
2018-01-23T21:29:10.085Z,5.00
2018-01-23T21:31:36.525Z,5.00
2018-01-23T21:34:02.977Z,5.00
2018-01-23T21:36:29.496Z,4.90
2018-01-23T21:38:56.156Z,4.90
2018-01-23T21:41:23.739Z,5.00
2018-01-23T21:43:50.212Z,5.00
2018-01-23T21:46:16.746Z,5.00
2018-01-23T21:48:43.345Z,5.00
2018-01-23T21:51:10.175Z,5.10
2018-01-23T21:53:37.064Z,5.00
2018-01-23T21:56:03.907Z,5.10
2018-01-23T21:58:30.373Z,5.40
2018-01-23T22:00:57.286Z,5.20
2018-01-23T22:03:24.166Z,5.70
2018-01-23T22:05:52.109Z,5.20
2018-01-23T22:08:18.683Z,5.20
2018-01-23T22:10:46.238Z,5.20
2018-01-23T22:13:13.119Z,5.30
2018-01-23T22:15:39.572Z,5.00
2018-01-23T22:18:06.013Z,5.10
2018-01-23T22:20:32.505Z,5.20
2018-01-23T22:22:59.393Z,5.20
2018-01-23T22:25:25.855Z,5.20
2018-01-23T22:27:53.215Z,5.10
2018-01-23T22:30:19.723Z,5.10
2018-01-23T22:32:47.037Z,5.10
2018-01-23T22:35:13.471Z,5.10
2018-01-23T22:37:40.580Z,5.10
2018-01-23T22:40:07.780Z,5.20
2018-01-23T22:42:34.537Z,5.20
2018-01-23T22:45:00.972Z,5.10
2018-01-23T22:47:27.375Z,5.10
2018-01-23T22:49:53.760Z,5.20
2018-01-23T22:52:20.234Z,5.20
2018-01-23T22:54:47.323Z,5.30
2018-01-23T22:57:15.106Z,5.30
2018-01-23T22:59:41.514Z,5.30
2018-01-23T23:02:07.947Z,5.20
2018-01-23T23:04:41.287Z,5.50
2018-01-23T23:07:07.678Z,5.30
2018-01-23T23:09:34.145Z,5.40
2018-01-23T23:12:00.509Z,5.40
2018-01-23T23:14:26.947Z,5.50
2018-01-23T23:16:53.311Z,5.50
2018-01-23T23:19:19.676Z,5.20
2018-01-23T23:21:46.063Z,3.60
2018-01-23T23:24:13.155Z,5.60
2018-01-23T23:26:40.324Z,5.50
2018-01-23T23:29:07.474Z,5.50
2018-01-23T23:31:33.873Z,5.50
2018-01-23T23:34:00.391Z,5.60
2018-01-23T23:36:26.829Z,5.50
2018-01-23T23:38:53.275Z,5.60
2018-01-23T23:41:19.792Z,5.50
2018-01-23T23:43:46.404Z,5.60
2018-01-23T23:46:12.938Z,5.60
2018-01-23T23:48:39.571Z,5.60
2018-01-23T23:51:07.237Z,5.70
2018-01-23T23:53:33.721Z,5.70
2018-01-23T23:56:00.229Z,5.70
2018-01-23T23:58:26.700Z,5.80
